createdAt,value
2023-04-24T00:01:40.430Z,99.90
2023-04-24T00:04:08.289Z,99.90
2023-04-24T00:06:35.372Z,99.90
2023-04-24T00:09:02.332Z,99.90
2023-04-24T00:11:29.501Z,99.90
2023-04-24T00:13:56.987Z,99.90
2023-04-24T00:16:24.664Z,99.90
2023-04-24T00:18:53.718Z,99.90
2023-04-24T00:21:21.479Z,99.90
2023-04-24T00:23:48.942Z,99.90
2023-04-24T00:26:15.893Z,99.90
2023-04-24T00:28:42.723Z,99.90
2023-04-24T00:31:09.653Z,99.90
2023-04-24T00:33:36.882Z,99.90
2023-04-24T00:36:03.841Z,99.90
2023-04-24T00:38:30.637Z,99.90
2023-04-24T00:40:57.463Z,99.90
2023-04-24T00:43:24.308Z,99.90
2023-04-24T00:45:51.212Z,99.90
2023-04-24T00:48:18.745Z,99.90
2023-04-24T00:50:46.256Z,99.90
2023-04-24T00:53:13.167Z,99.90
2023-04-24T00:55:40.050Z,99.90
2023-04-24T00:58:06.934Z,99.90
2023-04-24T01:00:34.106Z,99.90
2023-04-24T01:03:05.331Z,99.90
2023-04-24T01:05:32.758Z,99.90
2023-04-24T01:08:00.935Z,99.90
2023-04-24T01:10:30.486Z,99.90
2023-04-24T01:12:57.681Z,99.90
2023-04-24T01:15:24.495Z,99.90
2023-04-24T01:17:51.403Z,99.90
2023-04-24T01:20:18.908Z,99.90
2023-04-24T01:22:46.033Z,99.90
2023-04-24T01:25:13.135Z,99.90
2023-04-24T01:27:39.969Z,99.90
2023-04-24T01:30:08.566Z,99.90
2023-04-24T01:32:36.299Z,99.90
2023-04-24T01:35:03.448Z,99.90
2023-04-24T01:37:30.369Z,99.90
2023-04-24T01:39:57.354Z,99.90
2023-04-24T01:42:24.286Z,99.90
2023-04-24T01:44:52.282Z,99.90
2023-04-24T01:47:19.097Z,99.90
2023-04-24T01:49:48.875Z,99.90
2023-04-24T01:52:16.016Z,99.90
2023-04-24T01:54:42.933Z,99.90
2023-04-24T01:57:10.125Z,99.90
2023-04-24T01:59:37.440Z,99.90
2023-04-24T02:02:05.067Z,99.90
2023-04-24T02:04:31.947Z,99.90
2023-04-24T02:06:58.921Z,99.90
2023-04-24T02:09:25.993Z,99.90
2023-04-24T02:11:52.849Z,99.90
2023-04-24T02:14:19.739Z,99.90
2023-04-24T02:16:46.941Z,99.90
2023-04-24T02:19:13.967Z,99.90
2023-04-24T02:21:40.891Z,99.90
2023-04-24T02:24:07.768Z,99.90
2023-04-24T02:26:34.630Z,99.90
2023-04-24T02:29:01.541Z,99.90
2023-04-24T02:31:28.511Z,99.90
2023-04-24T02:33:55.417Z,99.90
2023-04-24T02:36:22.330Z,99.90
2023-04-24T02:38:49.236Z,99.90
2023-04-24T02:41:16.036Z,99.90
2023-04-24T02:43:42.878Z,99.90
2023-04-24T02:46:09.690Z,99.90
2023-04-24T02:48:36.586Z,99.90
2023-04-24T02:51:03.561Z,99.90
2023-04-24T02:53:31.635Z,99.90
2023-04-24T02:55:58.409Z,99.90
2023-04-24T02:58:26.021Z,99.90
2023-04-24T03:00:59.239Z,99.90
2023-04-24T03:03:26.454Z,99.90
2023-04-24T03:05:53.528Z,99.90
2023-04-24T03:08:20.402Z,99.90
2023-04-24T03:10:48.420Z,99.90
2023-04-24T03:13:16.228Z,99.90
2023-04-24T03:15:43.268Z,99.90
2023-04-24T03:18:10.262Z,99.90
2023-04-24T03:20:38.579Z,99.90
2023-04-24T03:23:05.732Z,99.90
2023-04-24T03:25:32.629Z,99.90
2023-04-24T03:27:59.523Z,99.90
2023-04-24T03:30:26.397Z,99.90
2023-04-24T03:32:53.381Z,99.90
2023-04-24T03:35:20.463Z,99.90
2023-04-24T03:37:47.297Z,99.90
2023-04-24T03:40:14.216Z,99.90
2023-04-24T03:42:41.150Z,99.90
2023-04-24T03:45:08.765Z,99.90
2023-04-24T03:47:35.726Z,99.90
2023-04-24T03:50:03.044Z,99.90
2023-04-24T03:52:29.927Z,99.90
2023-04-24T03:54:56.834Z,99.90
2023-04-24T03:57:23.655Z,99.90
2023-04-24T03:59:50.508Z,99.90
2023-04-24T04:02:17.528Z,99.90
2023-04-24T04:04:44.655Z,99.90
2023-04-24T04:07:12.307Z,99.90
2023-04-24T04:09:39.188Z,99.90
2023-04-24T04:12:06.114Z,99.90
2023-04-24T04:14:33.083Z,99.90
2023-04-24T04:17:00.032Z,99.90
2023-04-24T04:19:26.884Z,99.90
2023-04-24T04:21:54.589Z,99.90
2023-04-24T04:24:25.217Z,99.90
2023-04-24T04:26:53.318Z,99.90
2023-04-24T04:29:20.296Z,99.90
2023-04-24T04:31:47.436Z,99.90
2023-04-24T04:34:15.295Z,99.90
2023-04-24T04:36:43.973Z,99.90
2023-04-24T04:39:10.908Z,99.90
2023-04-24T04:41:38.821Z,99.90
2023-04-24T04:44:05.812Z,99.90
2023-04-24T04:46:39.939Z,99.90
2023-04-24T04:49:07.273Z,99.90
2023-04-24T04:51:34.059Z,99.90
2023-04-24T04:54:01.195Z,99.90
2023-04-24T04:56:27.997Z,99.90
2023-04-24T04:58:55.010Z,99.90
2023-04-24T05:01:24.159Z,99.90
2023-04-24T05:03:51.239Z,99.90
2023-04-24T05:06:18.224Z,99.90
2023-04-24T05:08:45.029Z,99.90
2023-04-24T05:11:11.962Z,99.90
2023-04-24T05:13:40.994Z,99.90
2023-04-24T05:16:08.221Z,99.90
2023-04-24T05:18:35.086Z,99.90
2023-04-24T05:21:02.434Z,99.90
2023-04-24T05:23:29.309Z,99.90
2023-04-24T05:25:56.147Z,99.90
2023-04-24T05:28:23.022Z,99.90
2023-04-24T05:30:49.840Z,99.90
2023-04-24T05:33:16.603Z,99.90
2023-04-24T05:35:47.769Z,99.90
2023-04-24T05:38:18.773Z,99.90
2023-04-24T05:40:45.794Z,99.90
2023-04-24T05:43:13.337Z,99.90
2023-04-24T05:45:40.451Z,99.90
2023-04-24T05:48:07.583Z,99.90
2023-04-24T05:50:36.267Z,99.90
2023-04-24T05:53:04.305Z,99.90
2023-04-24T05:55:32.420Z,99.90
2023-04-24T05:57:59.522Z,99.90
2023-04-24T06:00:26.983Z,99.90
2023-04-24T06:02:54.357Z,99.90
2023-04-24T06:05:21.476Z,99.90
2023-04-24T06:07:49.457Z,99.90
2023-04-24T06:10:16.599Z,99.90
2023-04-24T06:12:43.377Z,99.90
2023-04-24T06:15:10.879Z,99.90
2023-04-24T06:17:37.760Z,99.90
2023-04-24T06:20:06.772Z,99.90
2023-04-24T06:22:33.710Z,99.90
2023-04-24T06:25:01.826Z,99.90
2023-04-24T06:27:28.664Z,99.90
2023-04-24T06:29:56.223Z,99.90
2023-04-24T06:32:25.365Z,99.90
2023-04-24T06:34:53.459Z,99.90
2023-04-24T06:37:21.590Z,99.90
2023-04-24T06:39:48.661Z,99.90
2023-04-24T06:42:15.890Z,99.90
2023-04-24T06:44:43.014Z,99.90
2023-04-24T06:47:16.379Z,99.90
2023-04-24T06:49:43.784Z,99.90
2023-04-24T06:52:10.798Z,99.90
2023-04-24T06:54:37.692Z,99.90
2023-04-24T06:57:04.681Z,99.90
2023-04-24T06:59:31.747Z,99.90
2023-04-24T07:01:58.950Z,99.90
2023-04-24T07:04:26.507Z,99.90
2023-04-24T07:06:56.831Z,99.90
2023-04-24T07:09:24.811Z,99.90
2023-04-24T07:11:52.545Z,99.90
2023-04-24T07:14:19.382Z,99.90
2023-04-24T07:16:46.627Z,99.90
2023-04-24T07:19:14.338Z,99.90
2023-04-24T07:21:41.656Z,99.90
2023-04-24T07:24:11.976Z,99.90
2023-04-24T07:26:40.172Z,99.90
2023-04-24T07:29:07.672Z,99.90
2023-04-24T07:31:34.760Z,99.90
2023-04-24T07:34:01.844Z,99.90
2023-04-24T07:36:29.091Z,99.90
2023-04-24T07:38:57.600Z,99.90
2023-04-24T07:41:25.472Z,99.90
2023-04-24T07:43:53.570Z,99.90
2023-04-24T07:46:21.386Z,99.90
2023-04-24T07:48:58.544Z,99.90
2023-04-24T07:51:33.664Z,99.90
2023-04-24T07:54:00.518Z,99.90
2023-04-24T07:56:28.088Z,99.90
2023-04-24T07:58:55.009Z,99.90
2023-04-24T08:01:22.000Z,99.90
2023-04-24T08:03:49.211Z,99.90
2023-04-24T08:06:16.272Z,99.90
2023-04-24T08:08:43.161Z,99.90
2023-04-24T08:11:09.994Z,99.90
2023-04-24T08:13:36.777Z,99.90
2023-04-24T08:16:03.754Z,99.90
2023-04-24T08:18:30.673Z,99.90
2023-04-24T08:21:02.377Z,99.90
2023-04-24T08:23:30.630Z,99.90
2023-04-24T08:25:58.337Z,99.90
2023-04-24T08:28:25.226Z,99.90
2023-04-24T08:30:55.633Z,99.90
2023-04-24T08:33:25.872Z,99.90
2023-04-24T08:35:53.620Z,99.90
2023-04-24T08:38:20.697Z,99.90
2023-04-24T08:40:50.668Z,99.90
2023-04-24T08:43:18.094Z,99.90
2023-04-24T08:45:45.546Z,99.90
2023-04-24T08:48:23.520Z,99.90
2023-04-24T08:50:58.232Z,99.90
2023-04-24T08:53:26.311Z,99.90
2023-04-24T08:55:56.594Z,99.90
2023-04-24T08:58:27.009Z,99.90
2023-04-24T09:00:56.593Z,99.90
2023-04-24T09:03:23.966Z,99.90
2023-04-24T09:05:51.646Z,99.90
2023-04-24T09:08:20.393Z,99.90
2023-04-24T09:10:49.827Z,99.90
2023-04-24T09:13:19.690Z,99.90
2023-04-24T09:15:46.872Z,99.90
2023-04-24T09:18:13.712Z,99.90
2023-04-24T09:21:05.368Z,99.90
2023-04-24T09:23:33.015Z,99.90
2023-04-24T09:26:01.594Z,99.90
2023-04-24T09:28:36.461Z,99.90
2023-04-24T09:31:05.218Z,99.90
2023-04-24T09:33:32.164Z,99.90
2023-04-24T09:36:00.243Z,99.90
2023-04-24T09:38:38.408Z,99.90
2023-04-24T09:41:09.739Z,99.90
2023-04-24T09:43:36.939Z,99.90
2023-04-24T09:46:10.596Z,99.90
2023-04-24T09:48:38.668Z,99.90
2023-04-24T09:51:16.883Z,99.90
2023-04-24T09:53:47.760Z,99.90
2023-04-24T09:56:14.642Z,99.90
2023-04-24T09:58:41.542Z,99.90
2023-04-24T10:01:08.534Z,99.90
2023-04-24T10:03:37.025Z,99.90
2023-04-24T10:06:09.976Z,99.90
2023-04-24T10:08:38.720Z,99.90
2023-04-24T10:11:06.119Z,99.90
2023-04-24T10:13:33.838Z,99.90
2023-04-24T10:16:02.469Z,99.90
2023-04-24T10:18:29.909Z,99.90
2023-04-24T10:20:58.499Z,99.90
2023-04-24T10:23:26.953Z,99.90
2023-04-24T10:25:54.794Z,99.90
2023-04-24T10:28:22.733Z,99.90
2023-04-24T10:30:50.997Z,99.90
2023-04-24T10:33:19.167Z,99.90
2023-04-24T10:35:50.126Z,99.90
2023-04-24T10:38:26.106Z,99.90
2023-04-24T10:40:58.115Z,99.90
2023-04-24T10:43:25.034Z,99.90
2023-04-24T10:46:17.479Z,99.90
2023-04-24T10:48:45.380Z,99.90
2023-04-24T10:51:16.493Z,99.90
2023-04-24T10:53:43.438Z,99.90
2023-04-24T10:56:14.541Z,99.90
2023-04-24T10:58:50.416Z,99.90
2023-04-24T11:01:39.221Z,99.90
2023-04-24T11:04:06.213Z,99.90
2023-04-24T11:06:36.853Z,99.90
2023-04-24T11:09:07.235Z,99.90
2023-04-24T11:11:35.122Z,99.90
2023-04-24T11:14:03.672Z,99.90
2023-04-24T11:16:52.963Z,99.90
2023-04-24T11:19:27.376Z,99.90
2023-04-24T11:22:04.951Z,99.90
2023-04-24T11:24:40.419Z,99.90
2023-04-24T11:27:15.174Z,99.90
2023-04-24T11:29:42.824Z,99.90
2023-04-24T11:32:33.677Z,99.90
2023-04-24T11:35:08.024Z,99.90
2023-04-24T11:37:42.643Z,99.90
2023-04-24T11:40:14.649Z,99.90
2023-04-24T11:42:46.063Z,99.90
2023-04-24T11:45:18.236Z,99.90
2023-04-24T11:47:46.364Z,99.90
2023-04-24T11:50:15.842Z,99.90
2023-04-24T11:52:44.702Z,99.90
2023-04-24T11:55:20.802Z,99.90
2023-04-24T11:57:57.542Z,99.90
2023-04-24T12:00:37.302Z,99.60
2023-04-24T12:03:06.666Z,99.70
2023-04-24T12:05:33.917Z,99.90
2023-04-24T12:08:00.994Z,99.90
2023-04-24T12:10:30.445Z,99.90
2023-04-24T12:12:58.299Z,99.90
2023-04-24T12:15:25.784Z,99.90
2023-04-24T12:17:53.830Z,99.90
2023-04-24T12:20:33.358Z,99.90
2023-04-24T12:23:02.061Z,99.90
2023-04-24T12:25:31.102Z,98.80
2023-04-24T12:28:07.357Z,98.10
2023-04-24T12:30:49.300Z,97.30
2023-04-24T12:33:22.900Z,94.90
2023-04-24T12:35:54.286Z,94.00
2023-04-24T12:38:25.584Z,93.00
2023-04-24T12:41:05.396Z,92.40
2023-04-24T12:43:32.660Z,88.80
2023-04-24T12:46:00.184Z,82.60
2023-04-24T12:48:30.871Z,81.20
2023-04-24T12:51:03.631Z,82.60
2023-04-24T12:53:32.093Z,83.80
2023-04-24T12:55:59.122Z,86.30
2023-04-24T12:58:26.177Z,88.70
2023-04-24T13:00:53.237Z,90.20
2023-04-24T13:03:20.626Z,90.70
2023-04-24T13:05:47.562Z,89.80
2023-04-24T13:08:14.349Z,90.20
2023-04-24T13:10:42.388Z,91.70
2023-04-24T13:13:09.969Z,95.00
2023-04-24T13:15:36.922Z,98.60
2023-04-24T13:18:04.490Z,99.90
2023-04-24T13:20:31.589Z,99.90
2023-04-24T13:22:58.370Z,99.90
2023-04-24T13:25:26.088Z,99.90
2023-04-24T13:27:53.011Z,98.00
2023-04-24T13:30:20.073Z,94.70
2023-04-24T13:32:46.914Z,91.70
2023-04-24T13:35:13.795Z,86.60
2023-04-24T13:37:40.668Z,80.20
2023-04-24T13:40:08.246Z,78.40
2023-04-24T13:42:35.589Z,80.60
2023-04-24T13:45:13.864Z,81.70
2023-04-24T13:47:51.902Z,81.10
2023-04-24T13:50:19.532Z,81.70
2023-04-24T13:52:46.353Z,77.40
2023-04-24T13:55:13.412Z,75.20
2023-04-24T13:57:40.226Z,70.70
2023-04-24T14:00:07.847Z,68.70
2023-04-24T14:02:34.783Z,65.30
2023-04-24T14:05:01.901Z,66.40
2023-04-24T14:07:29.558Z,68.50
2023-04-24T14:09:56.705Z,72.80
2023-04-24T14:12:23.643Z,75.00
2023-04-24T14:14:50.581Z,77.50
2023-04-24T14:17:17.340Z,79.70
2023-04-24T14:19:44.240Z,81.10
2023-04-24T14:22:11.175Z,82.10
2023-04-24T14:24:37.961Z,82.60
2023-04-24T14:27:04.867Z,82.40
2023-04-24T14:29:32.340Z,78.90
2023-04-24T14:32:00.743Z,74.30
2023-04-24T14:34:27.753Z,70.50
2023-04-24T14:36:55.115Z,70.20
2023-04-24T14:39:22.207Z,68.50
2023-04-24T14:41:49.251Z,65.80
2023-04-24T14:44:16.269Z,64.10
2023-04-24T14:46:43.476Z,64.40
2023-04-24T14:49:10.866Z,66.70
2023-04-24T14:51:37.992Z,66.10
2023-04-24T14:54:05.025Z,65.60
2023-04-24T14:56:31.896Z,65.40
2023-04-24T14:58:58.857Z,65.90
2023-04-24T15:01:26.383Z,63.60
2023-04-24T15:03:53.634Z,60.60
2023-04-24T15:06:21.322Z,58.70
2023-04-24T15:08:50.214Z,58.80
2023-04-24T15:11:17.862Z,59.20
2023-04-24T15:13:46.681Z,61.80
2023-04-24T15:16:14.100Z,63.10
2023-04-24T15:18:41.116Z,63.50
2023-04-24T15:21:07.974Z,65.00
2023-04-24T15:23:34.863Z,65.50
2023-04-24T15:26:02.589Z,67.40
2023-04-24T15:28:29.390Z,67.30
2023-04-24T15:30:56.235Z,68.10
2023-04-24T15:33:23.110Z,66.90
2023-04-24T15:35:50.115Z,66.30
2023-04-24T15:38:16.955Z,65.70
2023-04-24T15:40:43.764Z,66.30
2023-04-24T15:43:11.767Z,65.40
2023-04-24T15:45:38.832Z,64.90
2023-04-24T15:48:06.149Z,65.20
2023-04-24T15:50:33.150Z,64.80
2023-04-24T15:52:59.994Z,63.70
2023-04-24T15:55:27.961Z,62.70
2023-04-24T15:57:55.444Z,62.60
2023-04-24T16:00:22.273Z,63.10
2023-04-24T16:02:50.486Z,63.30
2023-04-24T16:05:19.887Z,63.50
2023-04-24T16:07:46.765Z,63.30
2023-04-24T16:10:13.908Z,63.50
2023-04-24T16:12:40.931Z,65.00
2023-04-24T16:15:08.188Z,66.50
2023-04-24T16:17:35.149Z,68.00
2023-04-24T16:20:03.431Z,69.40
2023-04-24T16:22:30.406Z,70.70
2023-04-24T16:24:58.597Z,71.80
2023-04-24T16:27:26.029Z,73.60
2023-04-24T16:29:53.409Z,74.30
2023-04-24T16:32:21.007Z,75.40
2023-04-24T16:34:47.966Z,74.70
2023-04-24T16:37:14.920Z,73.70
2023-04-24T16:39:45.130Z,73.10
2023-04-24T16:42:15.917Z,74.30
2023-04-24T16:44:43.571Z,74.30
2023-04-24T16:47:14.814Z,74.80
2023-04-24T16:49:42.110Z,75.50
2023-04-24T16:52:09.317Z,76.00
2023-04-24T16:54:36.339Z,75.90
2023-04-24T16:57:04.411Z,76.80
2023-04-24T16:59:33.975Z,76.40
2023-04-24T17:02:04.049Z,74.30
2023-04-24T17:04:32.350Z,73.70
2023-04-24T17:06:59.369Z,73.20
2023-04-24T17:09:26.357Z,72.60
2023-04-24T17:11:53.272Z,73.00
2023-04-24T17:14:20.253Z,73.80
2023-04-24T17:16:47.361Z,74.10
2023-04-24T17:19:15.232Z,75.20
2023-04-24T17:21:42.104Z,73.70
2023-04-24T17:24:08.967Z,72.90
2023-04-24T17:26:35.955Z,73.30
2023-04-24T17:29:02.839Z,73.20
2023-04-24T17:31:29.788Z,74.20
2023-04-24T17:33:56.718Z,74.40
2023-04-24T17:36:23.585Z,75.10
2023-04-24T17:38:50.573Z,75.60
2023-04-24T17:41:17.805Z,76.60
2023-04-24T17:43:45.790Z,77.20
2023-04-24T17:46:13.331Z,78.20
2023-04-24T17:48:40.357Z,77.80
2023-04-24T17:51:07.211Z,78.20
2023-04-24T17:53:34.119Z,78.50
2023-04-24T17:56:03.425Z,79.80
2023-04-24T17:58:31.307Z,80.40
2023-04-24T18:00:58.153Z,81.50
2023-04-24T18:03:25.104Z,82.90
2023-04-24T18:05:52.105Z,83.10
2023-04-24T18:08:18.982Z,84.10
2023-04-24T18:10:46.024Z,85.00
2023-04-24T18:13:12.803Z,86.40
2023-04-24T18:15:43.150Z,87.70
2023-04-24T18:18:11.170Z,88.70
2023-04-24T18:20:38.417Z,89.80
2023-04-24T18:23:05.948Z,90.50
2023-04-24T18:25:32.957Z,91.40
2023-04-24T18:27:59.767Z,91.90
2023-04-24T18:30:27.030Z,92.80
2023-04-24T18:32:54.149Z,93.60
2023-04-24T18:35:21.832Z,94.20
2023-04-24T18:37:49.210Z,95.20
2023-04-24T18:40:16.519Z,96.40
2023-04-24T18:42:43.714Z,97.40
2023-04-24T18:45:14.404Z,98.60
2023-04-24T18:47:41.728Z,99.60
2023-04-24T18:50:09.037Z,99.90
2023-04-24T18:52:35.952Z,99.90
2023-04-24T18:55:03.979Z,99.90
2023-04-24T18:57:30.955Z,99.90
2023-04-24T18:59:57.755Z,99.90
2023-04-24T19:02:24.903Z,99.90
2023-04-24T19:04:51.752Z,99.90
2023-04-24T19:07:19.847Z,99.90
2023-04-24T19:09:46.775Z,99.90
2023-04-24T19:12:13.624Z,99.90
2023-04-24T19:14:40.880Z,99.90
2023-04-24T19:17:10.133Z,99.90
2023-04-24T19:19:37.157Z,99.90
2023-04-24T19:22:04.398Z,99.90
2023-04-24T19:24:33.481Z,99.90
2023-04-24T19:27:00.628Z,99.90
2023-04-24T19:29:27.623Z,99.90
2023-04-24T19:31:55.626Z,99.90
2023-04-24T19:34:22.490Z,99.90
2023-04-24T19:36:49.403Z,99.90
2023-04-24T19:39:16.579Z,99.90
2023-04-24T19:41:43.364Z,99.90
2023-04-24T19:44:10.621Z,99.90
2023-04-24T19:46:37.608Z,99.90
2023-04-24T19:49:04.483Z,99.90
2023-04-24T19:51:32.372Z,99.90
2023-04-24T19:53:59.876Z,99.90
2023-04-24T19:56:26.660Z,99.90
2023-04-24T19:58:53.452Z,99.90
2023-04-24T20:01:20.320Z,99.90
2023-04-24T20:03:47.258Z,99.90
2023-04-24T20:06:14.132Z,99.90
2023-04-24T20:08:42.664Z,99.90
2023-04-24T20:11:09.507Z,99.90
2023-04-24T20:13:36.369Z,99.90
2023-04-24T20:16:04.441Z,99.90
2023-04-24T20:18:31.350Z,99.90
2023-04-24T20:20:59.881Z,99.90
2023-04-24T20:23:27.304Z,99.90
2023-04-24T20:25:58.425Z,99.90
2023-04-24T20:28:30.367Z,99.90
2023-04-24T20:30:58.846Z,99.90
2023-04-24T20:33:27.997Z,99.90
2023-04-24T20:35:54.958Z,99.90
2023-04-24T20:38:22.864Z,99.90
2023-04-24T20:40:57.820Z,99.90
2023-04-24T20:43:28.839Z,99.90
2023-04-24T20:45:58.659Z,99.90
2023-04-24T20:48:26.538Z,99.90
2023-04-24T20:50:56.178Z,99.90
2023-04-24T20:53:23.714Z,99.90
2023-04-24T20:55:50.667Z,99.90
2023-04-24T20:58:23.968Z,99.90
2023-04-24T21:00:51.681Z,99.90
2023-04-24T21:03:19.054Z,99.90
2023-04-24T21:05:46.003Z,99.90
2023-04-24T21:08:13.032Z,99.90
2023-04-24T21:10:39.814Z,99.90
2023-04-24T21:13:06.586Z,99.90
2023-04-24T21:15:33.973Z,99.90
2023-04-24T21:18:01.356Z,99.90
2023-04-24T21:20:28.225Z,99.90
2023-04-24T21:22:55.038Z,99.90
2023-04-24T21:25:21.883Z,99.90
2023-04-24T21:27:48.828Z,99.90
2023-04-24T21:30:15.690Z,99.90
2023-04-24T21:32:42.521Z,99.90
2023-04-24T21:35:09.877Z,99.90
2023-04-24T21:37:37.947Z,99.90
2023-04-24T21:40:05.117Z,99.90
2023-04-24T21:42:32.025Z,99.90
2023-04-24T21:44:58.829Z,99.90
2023-04-24T21:47:25.826Z,99.90
2023-04-24T21:49:52.657Z,99.90
2023-04-24T21:52:19.440Z,99.90
2023-04-24T21:54:46.412Z,99.90
2023-04-24T21:57:13.271Z,99.90
2023-04-24T21:59:40.294Z,99.90
2023-04-24T22:02:07.130Z,99.90
2023-04-24T22:04:33.944Z,99.90
2023-04-24T22:07:01.342Z,99.90
2023-04-24T22:09:28.150Z,99.90
2023-04-24T22:11:55.045Z,99.90
2023-04-24T22:14:22.023Z,99.90
2023-04-24T22:16:50.326Z,99.90
2023-04-24T22:19:17.143Z,99.90
2023-04-24T22:21:44.014Z,99.90
2023-04-24T22:24:10.783Z,99.90
2023-04-24T22:26:37.613Z,99.90
2023-04-24T22:29:04.464Z,99.90
2023-04-24T22:31:31.857Z,99.90
2023-04-24T22:33:58.694Z,99.90
2023-04-24T22:36:26.693Z,99.90
2023-04-24T22:38:53.449Z,99.90
2023-04-24T22:41:21.690Z,99.90
2023-04-24T22:43:48.789Z,99.90
2023-04-24T22:46:16.299Z,99.90
2023-04-24T22:48:43.095Z,99.90
2023-04-24T22:51:10.757Z,99.90
2023-04-24T22:53:37.525Z,99.90
2023-04-24T22:56:04.616Z,99.90
2023-04-24T22:58:32.013Z,99.90
2023-04-24T23:00:59.120Z,99.90
2023-04-24T23:03:26.167Z,99.90
2023-04-24T23:05:53.194Z,99.90
2023-04-24T23:08:19.927Z,99.90
2023-04-24T23:10:47.701Z,99.90
2023-04-24T23:13:14.506Z,99.90
2023-04-24T23:15:42.099Z,99.90
2023-04-24T23:18:08.879Z,99.90
2023-04-24T23:20:35.898Z,99.90
2023-04-24T23:23:02.713Z,99.90
2023-04-24T23:25:29.491Z,99.90
2023-04-24T23:27:56.634Z,99.90
2023-04-24T23:30:23.552Z,99.90
2023-04-24T23:32:50.487Z,99.90
2023-04-24T23:35:17.346Z,99.90
2023-04-24T23:37:44.234Z,99.90
2023-04-24T23:40:11.330Z,99.90
2023-04-24T23:42:38.346Z,99.90
2023-04-24T23:45:05.565Z,99.90
2023-04-24T23:47:32.388Z,99.90
2023-04-24T23:49:59.227Z,99.90
2023-04-24T23:52:26.070Z,99.90
2023-04-24T23:54:52.911Z,99.90
2023-04-24T23:57:19.735Z,99.90
2023-04-24T23:59:46.486Z,99.90
